sensor_id;sensor_type;location;lat;lon;timestamp;P1;durP1;ratioP1;P2;durP2;ratioP2
20379;SDS011;10349;48.666;8.948;2023-05-17T00:02:10;3.30;;;2.20;;
20379;SDS011;10349;48.666;8.948;2023-05-17T00:04:36;8.30;;;2.00;;
20379;SDS011;10349;48.666;8.948;2023-05-17T00:07:01;1.70;;;1.60;;
20379;SDS011;10349;48.666;8.948;2023-05-17T00:09:27;2.60;;;1.50;;
20379;SDS011;10349;48.666;8.948;2023-05-17T00:11:52;5.83;;;1.93;;
20379;SDS011;10349;48.666;8.948;2023-05-17T00:14:18;2.87;;;2.67;;
20379;SDS011;10349;48.666;8.948;2023-05-17T00:16:44;1.77;;;1.60;;
20379;SDS011;10349;48.666;8.948;2023-05-17T00:19:09;6.90;;;1.90;;
20379;SDS011;10349;48.666;8.948;2023-05-17T00:21:35;6.13;;;2.47;;
20379;SDS011;10349;48.666;8.948;2023-05-17T00:24:01;3.60;;;3.30;;
20379;SDS011;10349;48.666;8.948;2023-05-17T00:26:26;8.23;;;3.33;;
20379;SDS011;10349;48.666;8.948;2023-05-17T00:28:52;3.63;;;3.13;;
20379;SDS011;10349;48.666;8.948;2023-05-17T00:31:18;4.43;;;4.03;;
20379;SDS011;10349;48.666;8.948;2023-05-17T00:33:44;3.30;;;2.83;;
20379;SDS011;10349;48.666;8.948;2023-05-17T00:36:11;2.83;;;2.63;;
20379;SDS011;10349;48.666;8.948;2023-05-17T00:38:37;2.20;;;2.10;;
20379;SDS011;10349;48.666;8.948;2023-05-17T00:41:03;2.07;;;1.97;;
20379;SDS011;10349;48.666;8.948;2023-05-17T00:43:29;2.60;;;2.40;;
20379;SDS011;10349;48.666;8.948;2023-05-17T00:45:55;5.23;;;2.60;;
20379;SDS011;10349;48.666;8.948;2023-05-17T00:48:20;5.37;;;3.23;;
20379;SDS011;10349;48.666;8.948;2023-05-17T00:50:49;3.00;;;2.80;;
20379;SDS011;10349;48.666;8.948;2023-05-17T00:53:20;3.83;;;2.23;;
20379;SDS011;10349;48.666;8.948;2023-05-17T00:55:46;2.63;;;1.80;;
20379;SDS011;10349;48.666;8.948;2023-05-17T00:58:12;2.23;;;2.13;;
20379;SDS011;10349;48.666;8.948;2023-05-17T01:00:38;2.23;;;1.97;;
20379;SDS011;10349;48.666;8.948;2023-05-17T01:03:05;2.50;;;1.93;;
20379;SDS011;10349;48.666;8.948;2023-05-17T01:05:30;1.80;;;1.70;;
20379;SDS011;10349;48.666;8.948;2023-05-17T01:07:56;1.80;;;1.70;;
20379;SDS011;10349;48.666;8.948;2023-05-17T01:10:27;1.60;;;1.50;;
20379;SDS011;10349;48.666;8.948;2023-05-17T01:13:08;1.90;;;1.80;;
20379;SDS011;10349;48.666;8.948;2023-05-17T01:15:40;2.40;;;2.13;;
20379;SDS011;10349;48.666;8.948;2023-05-17T01:18:15;2.80;;;1.73;;
20379;SDS011;10349;48.666;8.948;2023-05-17T01:21:02;3.87;;;1.93;;
20379;SDS011;10349;48.666;8.948;2023-05-17T01:23:54;1.40;;;1.30;;
20379;SDS011;10349;48.666;8.948;2023-05-17T01:26:38;2.27;;;1.90;;
20379;SDS011;10349;48.666;8.948;2023-05-17T01:29:08;3.73;;;1.83;;
20379;SDS011;10349;48.666;8.948;2023-05-17T01:31:37;4.20;;;1.93;;
20379;SDS011;10349;48.666;8.948;2023-05-17T01:34:07;1.60;;;1.50;;
20379;SDS011;10349;48.666;8.948;2023-05-17T01:36:33;2.23;;;1.60;;
20379;SDS011;10349;48.666;8.948;2023-05-17T01:39:00;3.43;;;2.40;;
20379;SDS011;10349;48.666;8.948;2023-05-17T01:41:31;6.30;;;1.70;;
20379;SDS011;10349;48.666;8.948;2023-05-17T01:46:55;1.97;;;1.80;;
20379;SDS011;10349;48.666;8.948;2023-05-17T01:49:52;3.53;;;1.80;;
20379;SDS011;10349;48.666;8.948;2023-05-17T01:52:27;2.40;;;2.20;;
20379;SDS011;10349;48.666;8.948;2023-05-17T01:55:08;2.10;;;2.00;;
20379;SDS011;10349;48.666;8.948;2023-05-17T01:57:42;1.60;;;1.50;;
20379;SDS011;10349;48.666;8.948;2023-05-17T02:00:11;4.83;;;2.13;;
20379;SDS011;10349;48.666;8.948;2023-05-17T02:02:43;2.33;;;2.23;;
20379;SDS011;10349;48.666;8.948;2023-05-17T02:05:10;2.47;;;2.27;;
20379;SDS011;10349;48.666;8.948;2023-05-17T02:07:38;2.00;;;1.90;;
20379;SDS011;10349;48.666;8.948;2023-05-17T02:10:04;1.80;;;1.70;;
20379;SDS011;10349;48.666;8.948;2023-05-17T02:12:30;2.47;;;2.27;;
20379;SDS011;10349;48.666;8.948;2023-05-17T02:14:56;2.07;;;1.93;;
20379;SDS011;10349;48.666;8.948;2023-05-17T02:17:21;4.03;;;2.07;;
20379;SDS011;10349;48.666;8.948;2023-05-17T02:19:47;5.00;;;2.60;;
20379;SDS011;10349;48.666;8.948;2023-05-17T02:22:14;2.27;;;1.70;;
20379;SDS011;10349;48.666;8.948;2023-05-17T02:24:40;2.03;;;1.90;;
20379;SDS011;10349;48.666;8.948;2023-05-17T02:27:05;2.80;;;1.90;;
20379;SDS011;10349;48.666;8.948;2023-05-17T02:29:31;2.40;;;1.93;;
20379;SDS011;10349;48.666;8.948;2023-05-17T02:31:58;4.63;;;2.13;;
20379;SDS011;10349;48.666;8.948;2023-05-17T02:34:23;2.90;;;2.00;;
20379;SDS011;10349;48.666;8.948;2023-05-17T02:36:49;4.23;;;3.43;;
20379;SDS011;10349;48.666;8.948;2023-05-17T02:39:16;2.40;;;1.60;;
20379;SDS011;10349;48.666;8.948;2023-05-17T02:41:42;2.07;;;1.87;;
20379;SDS011;10349;48.666;8.948;2023-05-17T02:44:07;2.20;;;1.90;;
20379;SDS011;10349;48.666;8.948;2023-05-17T02:46:33;3.43;;;2.30;;
20379;SDS011;10349;48.666;8.948;2023-05-17T02:48:58;1.60;;;1.50;;
20379;SDS011;10349;48.666;8.948;2023-05-17T02:51:24;2.10;;;1.90;;
20379;SDS011;10349;48.666;8.948;2023-05-17T02:53:50;1.73;;;1.63;;
20379;SDS011;10349;48.666;8.948;2023-05-17T02:56:16;5.70;;;2.30;;
20379;SDS011;10349;48.666;8.948;2023-05-17T02:58:42;2.20;;;1.80;;
20379;SDS011;10349;48.666;8.948;2023-05-17T03:01:08;2.10;;;1.90;;
20379;SDS011;10349;48.666;8.948;2023-05-17T03:03:34;2.70;;;1.93;;
20379;SDS011;10349;48.666;8.948;2023-05-17T03:06:03;1.80;;;1.70;;
20379;SDS011;10349;48.666;8.948;2023-05-17T03:08:30;2.30;;;2.20;;
20379;SDS011;10349;48.666;8.948;2023-05-17T03:10:58;2.33;;;1.80;;
20379;SDS011;10349;48.666;8.948;2023-05-17T03:13:24;2.27;;;2.10;;
20379;SDS011;10349;48.666;8.948;2023-05-17T03:15:50;3.20;;;1.90;;
20379;SDS011;10349;48.666;8.948;2023-05-17T03:18:16;2.93;;;2.20;;
20379;SDS011;10349;48.666;8.948;2023-05-17T03:20:48;4.73;;;2.43;;
20379;SDS011;10349;48.666;8.948;2023-05-17T03:23:14;3.20;;;2.30;;
20379;SDS011;10349;48.666;8.948;2023-05-17T03:25:48;1.53;;;1.43;;
20379;SDS011;10349;48.666;8.948;2023-05-17T03:28:17;4.30;;;2.30;;
20379;SDS011;10349;48.666;8.948;2023-05-17T03:30:43;2.07;;;1.87;;
20379;SDS011;10349;48.666;8.948;2023-05-17T03:33:10;2.00;;;1.77;;
20379;SDS011;10349;48.666;8.948;2023-05-17T03:35:36;2.50;;;2.30;;
20379;SDS011;10349;48.666;8.948;2023-05-17T03:38:02;2.60;;;1.93;;
20379;SDS011;10349;48.666;8.948;2023-05-17T03:40:28;1.70;;;1.60;;
20379;SDS011;10349;48.666;8.948;2023-05-17T03:42:54;7.63;;;2.20;;
20379;SDS011;10349;48.666;8.948;2023-05-17T03:45:20;2.90;;;2.20;;
20379;SDS011;10349;48.666;8.948;2023-05-17T03:47:45;4.07;;;2.33;;
20379;SDS011;10349;48.666;8.948;2023-05-17T03:50:12;1.60;;;1.50;;
20379;SDS011;10349;48.666;8.948;2023-05-17T03:52:38;2.13;;;2.03;;
20379;SDS011;10349;48.666;8.948;2023-05-17T03:55:06;2.40;;;1.90;;
20379;SDS011;10349;48.666;8.948;2023-05-17T03:57:33;1.90;;;1.70;;
20379;SDS011;10349;48.666;8.948;2023-05-17T03:59:59;2.43;;;2.23;;
20379;SDS011;10349;48.666;8.948;2023-05-17T04:02:25;2.23;;;2.13;;
20379;SDS011;10349;48.666;8.948;2023-05-17T04:04:51;3.30;;;2.33;;
20379;SDS011;10349;48.666;8.948;2023-05-17T04:07:18;3.03;;;2.00;;
20379;SDS011;10349;48.666;8.948;2023-05-17T04:09:44;2.20;;;2.10;;
20379;SDS011;10349;48.666;8.948;2023-05-17T04:12:10;3.43;;;2.13;;
20379;SDS011;10349;48.666;8.948;2023-05-17T04:14:36;2.03;;;1.93;;
20379;SDS011;10349;48.666;8.948;2023-05-17T04:17:02;6.60;;;2.10;;
20379;SDS011;10349;48.666;8.948;2023-05-17T04:19:28;2.37;;;2.17;;
20379;SDS011;10349;48.666;8.948;2023-05-17T04:21:54;2.10;;;2.00;;
20379;SDS011;10349;48.666;8.948;2023-05-17T04:24:22;2.23;;;2.00;;
20379;SDS011;10349;48.666;8.948;2023-05-17T04:26:48;3.00;;;2.80;;
20379;SDS011;10349;48.666;8.948;2023-05-17T04:29:14;2.77;;;1.90;;
20379;SDS011;10349;48.666;8.948;2023-05-17T04:31:41;4.00;;;2.10;;
20379;SDS011;10349;48.666;8.948;2023-05-17T04:34:07;2.07;;;1.97;;
20379;SDS011;10349;48.666;8.948;2023-05-17T04:36:33;4.00;;;1.87;;
20379;SDS011;10349;48.666;8.948;2023-05-17T04:39:00;2.17;;;1.97;;
20379;SDS011;10349;48.666;8.948;2023-05-17T04:41:28;2.07;;;1.97;;
20379;SDS011;10349;48.666;8.948;2023-05-17T04:43:54;4.40;;;2.47;;
20379;SDS011;10349;48.666;8.948;2023-05-17T04:46:26;2.13;;;1.93;;
20379;SDS011;10349;48.666;8.948;2023-05-17T04:48:53;3.07;;;2.40;;
20379;SDS011;10349;48.666;8.948;2023-05-17T04:51:20;6.13;;;2.10;;
20379;SDS011;10349;48.666;8.948;2023-05-17T04:53:46;2.70;;;2.50;;
20379;SDS011;10349;48.666;8.948;2023-05-17T04:56:16;3.00;;;2.47;;
20379;SDS011;10349;48.666;8.948;2023-05-17T04:58:42;2.53;;;2.33;;
20379;SDS011;10349;48.666;8.948;2023-05-17T05:01:08;2.57;;;1.97;;
20379;SDS011;10349;48.666;8.948;2023-05-17T05:03:34;2.33;;;2.13;;
20379;SDS011;10349;48.666;8.948;2023-05-17T05:06:01;2.20;;;2.10;;
20379;SDS011;10349;48.666;8.948;2023-05-17T05:08:28;7.03;;;2.90;;
20379;SDS011;10349;48.666;8.948;2023-05-17T05:10:55;2.70;;;2.50;;
20379;SDS011;10349;48.666;8.948;2023-05-17T05:13:23;2.27;;;2.17;;
20379;SDS011;10349;48.666;8.948;2023-05-17T05:15:50;2.03;;;1.93;;
20379;SDS011;10349;48.666;8.948;2023-05-17T05:18:16;3.90;;;2.50;;
20379;SDS011;10349;48.666;8.948;2023-05-17T05:20:42;3.30;;;2.60;;
20379;SDS011;10349;48.666;8.948;2023-05-17T05:23:09;2.10;;;2.00;;
20379;SDS011;10349;48.666;8.948;2023-05-17T05:25:36;3.40;;;2.83;;
20379;SDS011;10349;48.666;8.948;2023-05-17T05:28:02;2.57;;;2.37;;
20379;SDS011;10349;48.666;8.948;2023-05-17T05:30:29;3.33;;;2.07;;
20379;SDS011;10349;48.666;8.948;2023-05-17T05:32:56;2.17;;;1.97;;
20379;SDS011;10349;48.666;8.948;2023-05-17T05:35:21;3.83;;;2.50;;
20379;SDS011;10349;48.666;8.948;2023-05-17T05:37:54;4.97;;;1.90;;
20379;SDS011;10349;48.666;8.948;2023-05-17T05:40:21;1.93;;;1.83;;
20379;SDS011;10349;48.666;8.948;2023-05-17T05:42:48;2.63;;;2.43;;
20379;SDS011;10349;48.666;8.948;2023-05-17T05:45:13;2.27;;;2.07;;
20379;SDS011;10349;48.666;8.948;2023-05-17T05:47:42;2.73;;;2.07;;
20379;SDS011;10349;48.666;8.948;2023-05-17T05:50:07;3.07;;;2.20;;
20379;SDS011;10349;48.666;8.948;2023-05-17T05:52:34;3.20;;;2.33;;
20379;SDS011;10349;48.666;8.948;2023-05-17T05:54:59;4.13;;;2.37;;
20379;SDS011;10349;48.666;8.948;2023-05-17T05:57:26;3.40;;;2.50;;
20379;SDS011;10349;48.666;8.948;2023-05-17T05:59:51;2.97;;;2.10;;
20379;SDS011;10349;48.666;8.948;2023-05-17T06:02:17;3.40;;;2.30;;
20379;SDS011;10349;48.666;8.948;2023-05-17T06:04:47;2.00;;;1.90;;
20379;SDS011;10349;48.666;8.948;2023-05-17T06:07:13;3.67;;;2.20;;
20379;SDS011;10349;48.666;8.948;2023-05-17T06:09:40;12.10;;;2.53;;
20379;SDS011;10349;48.666;8.948;2023-05-17T06:12:06;2.43;;;1.90;;
20379;SDS011;10349;48.666;8.948;2023-05-17T06:14:32;2.13;;;2.03;;
20379;SDS011;10349;48.666;8.948;2023-05-17T06:16:59;5.50;;;2.90;;
20379;SDS011;10349;48.666;8.948;2023-05-17T06:19:24;3.63;;;2.53;;
20379;SDS011;10349;48.666;8.948;2023-05-17T06:21:50;2.63;;;2.40;;
20379;SDS011;10349;48.666;8.948;2023-05-17T06:24:16;4.47;;;2.43;;
20379;SDS011;10349;48.666;8.948;2023-05-17T06:26:41;2.97;;;2.70;;
20379;SDS011;10349;48.666;8.948;2023-05-17T06:29:17;3.37;;;2.43;;
20379;SDS011;10349;48.666;8.948;2023-05-17T06:31:44;2.50;;;2.27;;
20379;SDS011;10349;48.666;8.948;2023-05-17T06:34:10;2.40;;;2.20;;
20379;SDS011;10349;48.666;8.948;2023-05-17T06:36:36;5.87;;;2.50;;
20379;SDS011;10349;48.666;8.948;2023-05-17T06:39:01;2.60;;;2.40;;
20379;SDS011;10349;48.666;8.948;2023-05-17T06:41:27;4.17;;;3.77;;
20379;SDS011;10349;48.666;8.948;2023-05-17T06:43:53;4.33;;;2.60;;
20379;SDS011;10349;48.666;8.948;2023-05-17T06:46:18;5.83;;;2.53;;
20379;SDS011;10349;48.666;8.948;2023-05-17T06:48:44;2.30;;;2.20;;
20379;SDS011;10349;48.666;8.948;2023-05-17T06:51:09;3.00;;;2.43;;
20379;SDS011;10349;48.666;8.948;2023-05-17T06:53:35;2.83;;;2.47;;
20379;SDS011;10349;48.666;8.948;2023-05-17T06:56:01;5.10;;;2.63;;
20379;SDS011;10349;48.666;8.948;2023-05-17T06:58:28;2.77;;;2.47;;
20379;SDS011;10349;48.666;8.948;2023-05-17T07:00:53;4.90;;;2.60;;
20379;SDS011;10349;48.666;8.948;2023-05-17T07:03:21;2.13;;;1.97;;
20379;SDS011;10349;48.666;8.948;2023-05-17T07:05:46;2.70;;;2.20;;
20379;SDS011;10349;48.666;8.948;2023-05-17T07:08:12;5.03;;;3.23;;
20379;SDS011;10349;48.666;8.948;2023-05-17T07:10:39;2.43;;;2.23;;
20379;SDS011;10349;48.666;8.948;2023-05-17T07:13:04;3.77;;;3.00;;
20379;SDS011;10349;48.666;8.948;2023-05-17T07:15:32;2.77;;;2.57;;
20379;SDS011;10349;48.666;8.948;2023-05-17T07:17:57;2.60;;;2.40;;
20379;SDS011;10349;48.666;8.948;2023-05-17T07:20:23;3.10;;;2.57;;
20379;SDS011;10349;48.666;8.948;2023-05-17T07:22:48;3.33;;;3.03;;
20379;SDS011;10349;48.666;8.948;2023-05-17T07:25:14;5.30;;;2.83;;
20379;SDS011;10349;48.666;8.948;2023-05-17T07:27:42;6.03;;;3.30;;
20379;SDS011;10349;48.666;8.948;2023-05-17T07:30:08;3.30;;;3.10;;
20379;SDS011;10349;48.666;8.948;2023-05-17T07:32:34;4.73;;;2.80;;
20379;SDS011;10349;48.666;8.948;2023-05-17T07:35:00;4.50;;;3.30;;
20379;SDS011;10349;48.666;8.948;2023-05-17T07:37:27;5.37;;;3.30;;
20379;SDS011;10349;48.666;8.948;2023-05-17T07:39:52;3.67;;;2.63;;
20379;SDS011;10349;48.666;8.948;2023-05-17T07:42:18;4.67;;;2.77;;
20379;SDS011;10349;48.666;8.948;2023-05-17T07:44:43;2.83;;;2.63;;
20379;SDS011;10349;48.666;8.948;2023-05-17T07:47:12;3.33;;;2.40;;
20379;SDS011;10349;48.666;8.948;2023-05-17T07:49:38;3.10;;;2.90;;
20379;SDS011;10349;48.666;8.948;2023-05-17T07:52:03;6.00;;;3.40;;
20379;SDS011;10349;48.666;8.948;2023-05-17T07:54:29;6.33;;;3.60;;
20379;SDS011;10349;48.666;8.948;2023-05-17T07:56:55;3.10;;;2.80;;
20379;SDS011;10349;48.666;8.948;2023-05-17T07:59:21;5.00;;;3.10;;
20379;SDS011;10349;48.666;8.948;2023-05-17T08:01:49;11.80;;;2.80;;
20379;SDS011;10349;48.666;8.948;2023-05-17T08:04:15;5.63;;;3.47;;
20379;SDS011;10349;48.666;8.948;2023-05-17T08:06:41;3.07;;;2.80;;
20379;SDS011;10349;48.666;8.948;2023-05-17T08:09:09;4.23;;;3.67;;
20379;SDS011;10349;48.666;8.948;2023-05-17T08:11:35;7.00;;;3.13;;
20379;SDS011;10349;48.666;8.948;2023-05-17T08:14:01;6.80;;;3.20;;
20379;SDS011;10349;48.666;8.948;2023-05-17T08:16:27;2.60;;;2.30;;
20379;SDS011;10349;48.666;8.948;2023-05-17T08:18:53;3.63;;;2.97;;
20379;SDS011;10349;48.666;8.948;2023-05-17T08:21:19;3.67;;;3.37;;
20379;SDS011;10349;48.666;8.948;2023-05-17T08:23:44;6.37;;;3.10;;
20379;SDS011;10349;48.666;8.948;2023-05-17T08:26:11;3.90;;;3.50;;
20379;SDS011;10349;48.666;8.948;2023-05-17T08:28:37;10.73;;;5.07;;
20379;SDS011;10349;48.666;8.948;2023-05-17T08:31:03;6.17;;;3.20;;
20379;SDS011;10349;48.666;8.948;2023-05-17T08:33:30;3.87;;;3.37;;
20379;SDS011;10349;48.666;8.948;2023-05-17T08:35:57;3.20;;;3.00;;
20379;SDS011;10349;48.666;8.948;2023-05-17T08:38:25;3.97;;;2.63;;
20379;SDS011;10349;48.666;8.948;2023-05-17T08:40:54;5.60;;;2.60;;
20379;SDS011;10349;48.666;8.948;2023-05-17T08:43:21;3.53;;;3.23;;
20379;SDS011;10349;48.666;8.948;2023-05-17T08:45:48;2.97;;;2.77;;
20379;SDS011;10349;48.666;8.948;2023-05-17T08:48:14;3.30;;;3.00;;
20379;SDS011;10349;48.666;8.948;2023-05-17T08:50:46;7.43;;;3.60;;
20379;SDS011;10349;48.666;8.948;2023-05-17T08:53:15;3.23;;;2.97;;
20379;SDS011;10349;48.666;8.948;2023-05-17T08:55:45;4.80;;;3.40;;
20379;SDS011;10349;48.666;8.948;2023-05-17T08:58:15;7.20;;;3.20;;
20379;SDS011;10349;48.666;8.948;2023-05-17T09:00:43;4.60;;;3.43;;
20379;SDS011;10349;48.666;8.948;2023-05-17T09:03:11;8.10;;;3.33;;
20379;SDS011;10349;48.666;8.948;2023-05-17T09:05:42;9.80;;;3.30;;
20379;SDS011;10349;48.666;8.948;2023-05-17T09:08:08;4.57;;;3.77;;
20379;SDS011;10349;48.666;8.948;2023-05-17T09:10:41;3.77;;;3.40;;
20379;SDS011;10349;48.666;8.948;2023-05-17T09:13:07;3.47;;;3.17;;
20379;SDS011;10349;48.666;8.948;2023-05-17T09:15:36;4.60;;;3.30;;
20379;SDS011;10349;48.666;8.948;2023-05-17T09:18:02;4.40;;;3.90;;
20379;SDS011;10349;48.666;8.948;2023-05-17T09:20:29;5.27;;;3.50;;
20379;SDS011;10349;48.666;8.948;2023-05-17T09:23:01;8.60;;;4.00;;
20379;SDS011;10349;48.666;8.948;2023-05-17T09:25:28;4.40;;;3.73;;
20379;SDS011;10349;48.666;8.948;2023-05-17T09:28:02;3.30;;;3.00;;
20379;SDS011;10349;48.666;8.948;2023-05-17T09:30:30;7.63;;;3.67;;
20379;SDS011;10349;48.666;8.948;2023-05-17T09:32:57;3.53;;;3.30;;
20379;SDS011;10349;48.666;8.948;2023-05-17T09:35:33;3.30;;;3.10;;
20379;SDS011;10349;48.666;8.948;2023-05-17T09:38:07;3.70;;;3.33;;
20379;SDS011;10349;48.666;8.948;2023-05-17T09:40:36;3.80;;;3.50;;
20379;SDS011;10349;48.666;8.948;2023-05-17T09:43:05;3.10;;;2.90;;
20379;SDS011;10349;48.666;8.948;2023-05-17T09:45:31;7.03;;;3.97;;
20379;SDS011;10349;48.666;8.948;2023-05-17T09:48:17;3.27;;;3.07;;
20379;SDS011;10349;48.666;8.948;2023-05-17T09:50:43;3.97;;;3.10;;
20379;SDS011;10349;48.666;8.948;2023-05-17T09:53:26;3.67;;;2.80;;
20379;SDS011;10349;48.666;8.948;2023-05-17T09:55:57;2.40;;;2.20;;
20379;SDS011;10349;48.666;8.948;2023-05-17T09:58:24;4.33;;;3.90;;
20379;SDS011;10349;48.666;8.948;2023-05-17T10:00:57;3.90;;;3.50;;
20379;SDS011;10349;48.666;8.948;2023-05-17T10:03:37;4.33;;;4.03;;
20379;SDS011;10349;48.666;8.948;2023-05-17T10:06:06;6.77;;;3.77;;
20379;SDS011;10349;48.666;8.948;2023-05-17T10:08:34;3.17;;;2.97;;
20379;SDS011;10349;48.666;8.948;2023-05-17T10:11:05;3.37;;;3.07;;
20379;SDS011;10349;48.666;8.948;2023-05-17T10:13:35;3.63;;;3.23;;
20379;SDS011;10349;48.666;8.948;2023-05-17T10:16:06;3.57;;;3.27;;
20379;SDS011;10349;48.666;8.948;2023-05-17T10:18:32;3.50;;;3.20;;
20379;SDS011;10349;48.666;8.948;2023-05-17T10:20:58;3.63;;;3.30;;
20379;SDS011;10349;48.666;8.948;2023-05-17T10:23:26;3.30;;;3.03;;
20379;SDS011;10349;48.666;8.948;2023-05-17T10:25:53;3.30;;;3.10;;
20379;SDS011;10349;48.666;8.948;2023-05-17T10:28:19;3.37;;;3.07;;
20379;SDS011;10349;48.666;8.948;2023-05-17T10:30:46;3.80;;;2.60;;
20379;SDS011;10349;48.666;8.948;2023-05-17T10:33:12;3.47;;;3.13;;
20379;SDS011;10349;48.666;8.948;2023-05-17T10:35:42;5.67;;;2.93;;
20379;SDS011;10349;48.666;8.948;2023-05-17T10:38:09;2.77;;;2.57;;
20379;SDS011;10349;48.666;8.948;2023-05-17T10:40:35;3.03;;;2.83;;
20379;SDS011;10349;48.666;8.948;2023-05-17T10:43:03;4.27;;;3.13;;
20379;SDS011;10349;48.666;8.948;2023-05-17T10:45:31;2.70;;;2.50;;
20379;SDS011;10349;48.666;8.948;2023-05-17T10:47:57;3.63;;;2.30;;
20379;SDS011;10349;48.666;8.948;2023-05-17T10:50:29;4.13;;;2.33;;
20379;SDS011;10349;48.666;8.948;2023-05-17T10:52:56;3.30;;;3.00;;
20379;SDS011;10349;48.666;8.948;2023-05-17T10:55:23;4.37;;;3.27;;
20379;SDS011;10349;48.666;8.948;2023-05-17T11:00:43;3.60;;;3.30;;
20379;SDS011;10349;48.666;8.948;2023-05-17T11:03:20;4.20;;;3.20;;
20379;SDS011;10349;48.666;8.948;2023-05-17T11:08:34;5.27;;;2.80;;
20379;SDS011;10349;48.666;8.948;2023-05-17T11:11:08;3.40;;;3.10;;
20379;SDS011;10349;48.666;8.948;2023-05-17T11:16:19;6.37;;;2.90;;
20379;SDS011;10349;48.666;8.948;2023-05-17T11:18:47;3.30;;;2.70;;
20379;SDS011;10349;48.666;8.948;2023-05-17T11:21:17;4.27;;;3.30;;
20379;SDS011;10349;48.666;8.948;2023-05-17T11:23:44;5.53;;;3.33;;
20379;SDS011;10349;48.666;8.948;2023-05-17T11:26:21;3.73;;;3.23;;
20379;SDS011;10349;48.666;8.948;2023-05-17T11:29:10;5.40;;;2.70;;
20379;SDS011;10349;48.666;8.948;2023-05-17T11:31:42;8.60;;;3.90;;
20379;SDS011;10349;48.666;8.948;2023-05-17T11:34:08;3.33;;;3.03;;
20379;SDS011;10349;48.666;8.948;2023-05-17T11:36:54;5.40;;;2.67;;
20379;SDS011;10349;48.666;8.948;2023-05-17T11:39:23;12.53;;;2.90;;
20379;SDS011;10349;48.666;8.948;2023-05-17T11:41:54;5.23;;;2.70;;
20379;SDS011;10349;48.666;8.948;2023-05-17T11:44:21;2.80;;;2.60;;
20379;SDS011;10349;48.666;8.948;2023-05-17T11:46:51;3.37;;;2.93;;
20379;SDS011;10349;48.666;8.948;2023-05-17T11:49:24;5.93;;;2.87;;
20379;SDS011;10349;48.666;8.948;2023-05-17T11:51:50;5.20;;;2.80;;
20379;SDS011;10349;48.666;8.948;2023-05-17T11:54:20;3.70;;;3.40;;
20379;SDS011;10349;48.666;8.948;2023-05-17T11:56:47;4.30;;;3.90;;
20379;SDS011;10349;48.666;8.948;2023-05-17T11:59:20;3.93;;;3.13;;
20379;SDS011;10349;48.666;8.948;2023-05-17T12:01:47;4.00;;;2.47;;
20379;SDS011;10349;48.666;8.948;2023-05-17T12:04:15;3.53;;;2.50;;
20379;SDS011;10349;48.666;8.948;2023-05-17T12:06:49;4.90;;;3.40;;
20379;SDS011;10349;48.666;8.948;2023-05-17T12:09:15;6.10;;;2.73;;
20379;SDS011;10349;48.666;8.948;2023-05-17T12:11:42;3.23;;;2.93;;
20379;SDS011;10349;48.666;8.948;2023-05-17T12:14:08;5.40;;;2.93;;
20379;SDS011;10349;48.666;8.948;2023-05-17T12:16:37;3.60;;;3.10;;
20379;SDS011;10349;48.666;8.948;2023-05-17T12:19:20;7.30;;;3.33;;
20379;SDS011;10349;48.666;8.948;2023-05-17T12:21:47;6.23;;;2.80;;
20379;SDS011;10349;48.666;8.948;2023-05-17T12:24:13;3.70;;;3.40;;
20379;SDS011;10349;48.666;8.948;2023-05-17T12:26:43;3.47;;;3.17;;
20379;SDS011;10349;48.666;8.948;2023-05-17T12:29:11;4.23;;;2.57;;
20379;SDS011;10349;48.666;8.948;2023-05-17T12:31:51;3.50;;;2.57;;
20379;SDS011;10349;48.666;8.948;2023-05-17T12:34:17;3.60;;;3.23;;
20379;SDS011;10349;48.666;8.948;2023-05-17T12:36:43;4.13;;;3.07;;
20379;SDS011;10349;48.666;8.948;2023-05-17T12:39:10;2.97;;;2.63;;
20379;SDS011;10349;48.666;8.948;2023-05-17T12:41:37;3.93;;;2.70;;
20379;SDS011;10349;48.666;8.948;2023-05-17T12:44:03;6.03;;;2.70;;
20379;SDS011;10349;48.666;8.948;2023-05-17T12:46:31;5.50;;;3.00;;
20379;SDS011;10349;48.666;8.948;2023-05-17T12:49:00;8.70;;;2.97;;
20379;SDS011;10349;48.666;8.948;2023-05-17T12:51:38;3.60;;;3.20;;
20379;SDS011;10349;48.666;8.948;2023-05-17T12:54:08;4.80;;;3.20;;
20379;SDS011;10349;48.666;8.948;2023-05-17T12:56:51;3.50;;;2.40;;
20379;SDS011;10349;48.666;8.948;2023-05-17T12:59:17;3.40;;;3.10;;
20379;SDS011;10349;48.666;8.948;2023-05-17T13:01:55;2.63;;;2.40;;
20379;SDS011;10349;48.666;8.948;2023-05-17T13:04:28;3.90;;;2.40;;
20379;SDS011;10349;48.666;8.948;2023-05-17T13:06:56;3.33;;;3.00;;
20379;SDS011;10349;48.666;8.948;2023-05-17T13:09:24;3.00;;;2.70;;
20379;SDS011;10349;48.666;8.948;2023-05-17T13:11:54;3.40;;;3.10;;
20379;SDS011;10349;48.666;8.948;2023-05-17T13:14:43;3.53;;;3.23;;
20379;SDS011;10349;48.666;8.948;2023-05-17T13:17:26;8.23;;;2.93;;
20379;SDS011;10349;48.666;8.948;2023-05-17T13:19:59;3.50;;;2.53;;
20379;SDS011;10349;48.666;8.948;2023-05-17T13:22:25;3.93;;;3.63;;
20379;SDS011;10349;48.666;8.948;2023-05-17T13:24:51;3.30;;;2.87;;
20379;SDS011;10349;48.666;8.948;2023-05-17T13:27:17;3.13;;;2.70;;
20379;SDS011;10349;48.666;8.948;2023-05-17T13:29:43;3.53;;;3.00;;
20379;SDS011;10349;48.666;8.948;2023-05-17T13:32:10;3.80;;;3.50;;
20379;SDS011;10349;48.666;8.948;2023-05-17T13:34:37;10.10;;;3.50;;
20379;SDS011;10349;48.666;8.948;2023-05-17T13:37:05;6.13;;;4.00;;
20379;SDS011;10349;48.666;8.948;2023-05-17T13:39:31;4.47;;;3.30;;
20379;SDS011;10349;48.666;8.948;2023-05-17T13:41:57;5.67;;;3.60;;
20379;SDS011;10349;48.666;8.948;2023-05-17T13:44:23;4.93;;;3.27;;
20379;SDS011;10349;48.666;8.948;2023-05-17T13:46:49;3.90;;;2.97;;
20379;SDS011;10349;48.666;8.948;2023-05-17T13:49:15;3.23;;;2.80;;
20379;SDS011;10349;48.666;8.948;2023-05-17T13:51:41;5.10;;;3.33;;
20379;SDS011;10349;48.666;8.948;2023-05-17T13:54:07;5.03;;;2.60;;
20379;SDS011;10349;48.666;8.948;2023-05-17T13:56:33;4.90;;;3.63;;
20379;SDS011;10349;48.666;8.948;2023-05-17T13:58:59;2.77;;;2.53;;
20379;SDS011;10349;48.666;8.948;2023-05-17T14:01:25;5.60;;;3.10;;
20379;SDS011;10349;48.666;8.948;2023-05-17T14:03:51;3.20;;;2.20;;
20379;SDS011;10349;48.666;8.948;2023-05-17T14:06:18;7.50;;;3.40;;
20379;SDS011;10349;48.666;8.948;2023-05-17T14:08:45;3.37;;;3.10;;
20379;SDS011;10349;48.666;8.948;2023-05-17T14:11:11;6.93;;;5.53;;
20379;SDS011;10349;48.666;8.948;2023-05-17T14:13:37;3.40;;;3.20;;
20379;SDS011;10349;48.666;8.948;2023-05-17T14:16:03;2.90;;;2.70;;
20379;SDS011;10349;48.666;8.948;2023-05-17T14:18:29;3.57;;;3.27;;
20379;SDS011;10349;48.666;8.948;2023-05-17T14:20:56;6.43;;;2.83;;
20379;SDS011;10349;48.666;8.948;2023-05-17T14:23:22;5.20;;;3.50;;
20379;SDS011;10349;48.666;8.948;2023-05-17T14:25:47;11.10;;;3.07;;
20379;SDS011;10349;48.666;8.948;2023-05-17T14:28:13;4.13;;;2.43;;
20379;SDS011;10349;48.666;8.948;2023-05-17T14:30:41;7.50;;;2.77;;
20379;SDS011;10349;48.666;8.948;2023-05-17T14:33:08;3.27;;;2.80;;
20379;SDS011;10349;48.666;8.948;2023-05-17T14:35:33;4.50;;;3.80;;
20379;SDS011;10349;48.666;8.948;2023-05-17T14:37:59;7.50;;;3.10;;
20379;SDS011;10349;48.666;8.948;2023-05-17T14:40:26;3.73;;;3.10;;
20379;SDS011;10349;48.666;8.948;2023-05-17T14:42:52;3.70;;;3.10;;
20379;SDS011;10349;48.666;8.948;2023-05-17T14:45:19;5.17;;;3.43;;
20379;SDS011;10349;48.666;8.948;2023-05-17T14:47:44;4.53;;;4.13;;
20379;SDS011;10349;48.666;8.948;2023-05-17T14:50:10;5.93;;;3.00;;
20379;SDS011;10349;48.666;8.948;2023-05-17T14:52:36;3.43;;;3.07;;
20379;SDS011;10349;48.666;8.948;2023-05-17T14:55:01;4.70;;;3.80;;
20379;SDS011;10349;48.666;8.948;2023-05-17T14:57:28;3.23;;;2.93;;
20379;SDS011;10349;48.666;8.948;2023-05-17T14:59:53;5.90;;;3.50;;
20379;SDS011;10349;48.666;8.948;2023-05-17T15:02:20;7.80;;;3.63;;
20379;SDS011;10349;48.666;8.948;2023-05-17T15:04:46;6.80;;;3.73;;